sensor_id;sensor_type;location;lat;lon;timestamp;P1;durP1;ratioP1;P2;durP2;ratioP2
64885;SDS011;51514;52.206;5.114;2024-01-16T00:02:16;12.52;;;3.25;;
64885;SDS011;51514;52.206;5.114;2024-01-16T00:04:41;12.07;;;4.50;;
64885;SDS011;51514;52.206;5.114;2024-01-16T00:07:07;10.48;;;3.88;;
64885;SDS011;51514;52.206;5.114;2024-01-16T00:09:33;8.80;;;3.10;;
64885;SDS011;51514;52.206;5.114;2024-01-16T00:11:59;15.43;;;3.67;;
64885;SDS011;51514;52.206;5.114;2024-01-16T00:14:25;12.38;;;3.15;;
64885;SDS011;51514;52.206;5.114;2024-01-16T00:16:50;9.68;;;3.50;;
64885;SDS011;51514;52.206;5.114;2024-01-16T00:19:16;14.85;;;3.92;;
64885;SDS011;51514;52.206;5.114;2024-01-16T00:21:42;14.68;;;3.78;;
64885;SDS011;51514;52.206;5.114;2024-01-16T00:24:08;7.88;;;3.38;;
64885;SDS011;51514;52.206;5.114;2024-01-16T00:26:33;13.48;;;4.47;;
64885;SDS011;51514;52.206;5.114;2024-01-16T00:28:59;13.25;;;3.75;;
64885;SDS011;51514;52.206;5.114;2024-01-16T00:31:24;10.07;;;3.10;;
64885;SDS011;51514;52.206;5.114;2024-01-16T00:33:49;9.80;;;3.15;;
64885;SDS011;51514;52.206;5.114;2024-01-16T00:36:15;9.43;;;2.78;;
64885;SDS011;51514;52.206;5.114;2024-01-16T00:38:40;11.50;;;3.30;;
64885;SDS011;51514;52.206;5.114;2024-01-16T00:41:06;12.70;;;3.10;;
64885;SDS011;51514;52.206;5.114;2024-01-16T00:43:31;10.68;;;3.05;;
64885;SDS011;51514;52.206;5.114;2024-01-16T00:45:57;11.98;;;3.25;;
64885;SDS011;51514;52.206;5.114;2024-01-16T00:48:22;7.97;;;2.90;;
64885;SDS011;51514;52.206;5.114;2024-01-16T00:50:48;9.02;;;3.10;;
64885;SDS011;51514;52.206;5.114;2024-01-16T00:53:15;11.20;;;2.95;;
64885;SDS011;51514;52.206;5.114;2024-01-16T00:55:41;10.95;;;3.42;;
64885;SDS011;51514;52.206;5.114;2024-01-16T00:58:07;6.75;;;2.78;;
64885;SDS011;51514;52.206;5.114;2024-01-16T01:00:32;16.73;;;3.00;;
64885;SDS011;51514;52.206;5.114;2024-01-16T01:03:00;11.07;;;3.25;;
64885;SDS011;51514;52.206;5.114;2024-01-16T01:05:25;9.63;;;2.70;;
64885;SDS011;51514;52.206;5.114;2024-01-16T01:07:53;9.90;;;3.22;;
64885;SDS011;51514;52.206;5.114;2024-01-16T01:10:22;8.30;;;2.60;;
64885;SDS011;51514;52.206;5.114;2024-01-16T01:12:48;11.60;;;3.05;;
64885;SDS011;51514;52.206;5.114;2024-01-16T01:15:14;10.88;;;3.40;;
64885;SDS011;51514;52.206;5.114;2024-01-16T01:17:40;7.93;;;2.55;;
64885;SDS011;51514;52.206;5.114;2024-01-16T01:20:06;8.85;;;2.58;;
64885;SDS011;51514;52.206;5.114;2024-01-16T01:22:33;12.52;;;2.75;;
64885;SDS011;51514;52.206;5.114;2024-01-16T01:24:58;6.75;;;2.70;;
64885;SDS011;51514;52.206;5.114;2024-01-16T01:27:23;11.40;;;4.45;;
64885;SDS011;51514;52.206;5.114;2024-01-16T01:29:49;9.80;;;3.15;;
64885;SDS011;51514;52.206;5.114;2024-01-16T01:32:14;10.30;;;2.95;;
64885;SDS011;51514;52.206;5.114;2024-01-16T01:34:42;15.60;;;2.85;;
64885;SDS011;51514;52.206;5.114;2024-01-16T01:37:08;6.32;;;2.50;;
64885;SDS011;51514;52.206;5.114;2024-01-16T01:39:33;12.27;;;3.10;;
64885;SDS011;51514;52.206;5.114;2024-01-16T01:41:59;8.55;;;3.28;;
64885;SDS011;51514;52.206;5.114;2024-01-16T01:44:24;9.13;;;2.55;;
64885;SDS011;51514;52.206;5.114;2024-01-16T01:46:50;5.68;;;2.17;;
64885;SDS011;51514;52.206;5.114;2024-01-16T01:49:16;6.72;;;2.15;;
64885;SDS011;51514;52.206;5.114;2024-01-16T01:51:42;8.43;;;2.40;;
64885;SDS011;51514;52.206;5.114;2024-01-16T01:54:08;6.63;;;1.98;;
64885;SDS011;51514;52.206;5.114;2024-01-16T01:56:35;11.30;;;2.55;;
64885;SDS011;51514;52.206;5.114;2024-01-16T01:59:00;9.88;;;2.42;;
64885;SDS011;51514;52.206;5.114;2024-01-16T02:01:27;8.63;;;2.35;;
64885;SDS011;51514;52.206;5.114;2024-01-16T02:03:54;5.85;;;2.20;;
64885;SDS011;51514;52.206;5.114;2024-01-16T02:06:20;3.92;;;2.08;;
64885;SDS011;51514;52.206;5.114;2024-01-16T02:08:45;7.55;;;2.15;;
64885;SDS011;51514;52.206;5.114;2024-01-16T02:11:11;7.88;;;2.25;;
64885;SDS011;51514;52.206;5.114;2024-01-16T02:13:37;5.47;;;2.50;;
64885;SDS011;51514;52.206;5.114;2024-01-16T02:16:02;12.25;;;2.30;;
64885;SDS011;51514;52.206;5.114;2024-01-16T02:18:28;6.28;;;2.03;;
64885;SDS011;51514;52.206;5.114;2024-01-16T02:20:55;8.02;;;2.30;;
64885;SDS011;51514;52.206;5.114;2024-01-16T02:23:29;5.65;;;1.83;;
64885;SDS011;51514;52.206;5.114;2024-01-16T02:25:56;6.47;;;2.60;;
64885;SDS011;51514;52.206;5.114;2024-01-16T02:28:21;7.07;;;2.15;;
64885;SDS011;51514;52.206;5.114;2024-01-16T02:30:47;2.80;;;1.60;;
64885;SDS011;51514;52.206;5.114;2024-01-16T02:33:12;7.65;;;2.55;;
64885;SDS011;51514;52.206;5.114;2024-01-16T02:35:37;6.18;;;2.28;;
64885;SDS011;51514;52.206;5.114;2024-01-16T02:38:04;6.85;;;2.05;;
64885;SDS011;51514;52.206;5.114;2024-01-16T02:40:29;5.80;;;1.90;;
64885;SDS011;51514;52.206;5.114;2024-01-16T02:42:55;9.05;;;2.17;;
64885;SDS011;51514;52.206;5.114;2024-01-16T02:45:20;3.60;;;1.77;;
64885;SDS011;51514;52.206;5.114;2024-01-16T02:47:46;6.50;;;2.08;;
64885;SDS011;51514;52.206;5.114;2024-01-16T02:50:11;5.25;;;1.77;;
64885;SDS011;51514;52.206;5.114;2024-01-16T02:52:36;10.52;;;2.92;;
64885;SDS011;51514;52.206;5.114;2024-01-16T02:55:02;4.60;;;1.88;;
64885;SDS011;51514;52.206;5.114;2024-01-16T02:57:28;6.63;;;2.03;;
64885;SDS011;51514;52.206;5.114;2024-01-16T02:59:53;7.05;;;1.95;;
64885;SDS011;51514;52.206;5.114;2024-01-16T03:02:18;5.57;;;2.03;;
64885;SDS011;51514;52.206;5.114;2024-01-16T03:04:44;6.40;;;1.42;;
64885;SDS011;51514;52.206;5.114;2024-01-16T03:07:09;10.65;;;2.17;;
64885;SDS011;51514;52.206;5.114;2024-01-16T03:09:34;7.47;;;1.90;;
64885;SDS011;51514;52.206;5.114;2024-01-16T03:12:00;6.47;;;2.72;;
64885;SDS011;51514;52.206;5.114;2024-01-16T03:14:25;10.45;;;2.15;;
64885;SDS011;51514;52.206;5.114;2024-01-16T03:16:50;10.95;;;2.15;;
64885;SDS011;51514;52.206;5.114;2024-01-16T03:19:16;7.25;;;1.88;;
64885;SDS011;51514;52.206;5.114;2024-01-16T03:21:41;6.50;;;1.85;;
64885;SDS011;51514;52.206;5.114;2024-01-16T03:24:07;6.63;;;2.00;;
64885;SDS011;51514;52.206;5.114;2024-01-16T03:26:35;6.68;;;1.90;;
64885;SDS011;51514;52.206;5.114;2024-01-16T03:29:02;6.72;;;2.08;;
64885;SDS011;51514;52.206;5.114;2024-01-16T03:31:28;8.30;;;1.77;;
64885;SDS011;51514;52.206;5.114;2024-01-16T03:33:53;5.90;;;1.85;;
64885;SDS011;51514;52.206;5.114;2024-01-16T03:36:18;4.60;;;2.00;;
64885;SDS011;51514;52.206;5.114;2024-01-16T03:38:44;6.18;;;2.25;;
64885;SDS011;51514;52.206;5.114;2024-01-16T03:41:12;5.22;;;1.90;;
64885;SDS011;51514;52.206;5.114;2024-01-16T03:43:38;8.48;;;2.90;;
64885;SDS011;51514;52.206;5.114;2024-01-16T03:46:04;9.35;;;1.90;;
64885;SDS011;51514;52.206;5.114;2024-01-16T03:48:29;9.35;;;2.10;;
64885;SDS011;51514;52.206;5.114;2024-01-16T03:50:55;3.60;;;2.17;;
64885;SDS011;51514;52.206;5.114;2024-01-16T03:53:21;4.68;;;2.58;;
64885;SDS011;51514;52.206;5.114;2024-01-16T03:55:47;4.55;;;2.03;;
64885;SDS011;51514;52.206;5.114;2024-01-16T03:58:13;5.95;;;2.20;;
64885;SDS011;51514;52.206;5.114;2024-01-16T04:00:38;4.28;;;1.77;;
64885;SDS011;51514;52.206;5.114;2024-01-16T04:03:04;10.35;;;2.13;;
64885;SDS011;51514;52.206;5.114;2024-01-16T04:05:30;7.55;;;3.03;;
64885;SDS011;51514;52.206;5.114;2024-01-16T04:07:56;9.50;;;2.78;;
64885;SDS011;51514;52.206;5.114;2024-01-16T04:10:22;7.18;;;2.53;;
64885;SDS011;51514;52.206;5.114;2024-01-16T04:12:47;8.55;;;2.28;;
64885;SDS011;51514;52.206;5.114;2024-01-16T04:15:13;8.93;;;2.05;;
64885;SDS011;51514;52.206;5.114;2024-01-16T04:17:39;7.97;;;2.92;;
64885;SDS011;51514;52.206;5.114;2024-01-16T04:20:05;9.27;;;2.42;;
64885;SDS011;51514;52.206;5.114;2024-01-16T04:22:32;7.85;;;2.53;;
64885;SDS011;51514;52.206;5.114;2024-01-16T04:24:57;5.78;;;2.47;;
64885;SDS011;51514;52.206;5.114;2024-01-16T04:27:23;10.50;;;3.08;;
64885;SDS011;51514;52.206;5.114;2024-01-16T04:29:50;9.30;;;2.80;;
64885;SDS011;51514;52.206;5.114;2024-01-16T04:32:15;11.30;;;2.33;;
64885;SDS011;51514;52.206;5.114;2024-01-16T04:34:41;4.95;;;2.15;;
64885;SDS011;51514;52.206;5.114;2024-01-16T04:37:06;8.52;;;2.33;;
64885;SDS011;51514;52.206;5.114;2024-01-16T04:39:31;8.68;;;2.78;;
64885;SDS011;51514;52.206;5.114;2024-01-16T04:41:57;8.48;;;2.30;;
64885;SDS011;51514;52.206;5.114;2024-01-16T04:44:23;6.97;;;2.38;;
64885;SDS011;51514;52.206;5.114;2024-01-16T04:46:48;17.50;;;3.13;;
64885;SDS011;51514;52.206;5.114;2024-01-16T04:49:13;9.43;;;3.33;;
64885;SDS011;51514;52.206;5.114;2024-01-16T04:51:38;10.68;;;2.90;;
64885;SDS011;51514;52.206;5.114;2024-01-16T04:54:04;11.02;;;2.88;;
64885;SDS011;51514;52.206;5.114;2024-01-16T04:56:29;8.63;;;2.65;;
64885;SDS011;51514;52.206;5.114;2024-01-16T04:58:54;11.50;;;2.55;;
64885;SDS011;51514;52.206;5.114;2024-01-16T05:01:20;7.72;;;2.30;;
64885;SDS011;51514;52.206;5.114;2024-01-16T05:03:45;6.70;;;2.47;;
64885;SDS011;51514;52.206;5.114;2024-01-16T05:06:14;6.05;;;2.45;;
64885;SDS011;51514;52.206;5.114;2024-01-16T05:08:40;11.95;;;3.05;;
64885;SDS011;51514;52.206;5.114;2024-01-16T05:11:06;5.95;;;2.50;;
64885;SDS011;51514;52.206;5.114;2024-01-16T05:13:32;7.55;;;2.30;;
64885;SDS011;51514;52.206;5.114;2024-01-16T05:15:57;7.45;;;2.97;;
64885;SDS011;51514;52.206;5.114;2024-01-16T05:18:22;11.27;;;3.33;;
64885;SDS011;51514;52.206;5.114;2024-01-16T05:20:48;6.25;;;2.42;;
64885;SDS011;51514;52.206;5.114;2024-01-16T05:23:13;10.13;;;2.97;;
64885;SDS011;51514;52.206;5.114;2024-01-16T05:25:38;8.57;;;3.13;;
64885;SDS011;51514;52.206;5.114;2024-01-16T05:28:04;8.18;;;2.97;;
64885;SDS011;51514;52.206;5.114;2024-01-16T05:30:29;8.13;;;2.85;;
64885;SDS011;51514;52.206;5.114;2024-01-16T05:32:55;9.90;;;3.13;;
64885;SDS011;51514;52.206;5.114;2024-01-16T05:35:25;8.50;;;2.88;;
64885;SDS011;51514;52.206;5.114;2024-01-16T05:37:51;10.70;;;2.67;;
64885;SDS011;51514;52.206;5.114;2024-01-16T05:40:16;14.00;;;3.95;;
64885;SDS011;51514;52.206;5.114;2024-01-16T05:42:41;10.77;;;2.92;;
64885;SDS011;51514;52.206;5.114;2024-01-16T05:45:07;13.35;;;3.20;;
64885;SDS011;51514;52.206;5.114;2024-01-16T05:47:33;8.77;;;3.00;;
64885;SDS011;51514;52.206;5.114;2024-01-16T05:49:58;11.52;;;3.50;;
64885;SDS011;51514;52.206;5.114;2024-01-16T05:52:23;10.02;;;3.53;;
64885;SDS011;51514;52.206;5.114;2024-01-16T05:54:49;12.07;;;4.00;;
64885;SDS011;51514;52.206;5.114;2024-01-16T05:57:14;7.85;;;3.67;;
64885;SDS011;51514;52.206;5.114;2024-01-16T05:59:39;7.70;;;3.60;;
64885;SDS011;51514;52.206;5.114;2024-01-16T06:02:05;7.47;;;3.08;;
64885;SDS011;51514;52.206;5.114;2024-01-16T06:04:30;6.93;;;3.28;;
64885;SDS011;51514;52.206;5.114;2024-01-16T06:06:55;9.55;;;3.45;;
64885;SDS011;51514;52.206;5.114;2024-01-16T06:09:21;7.57;;;2.90;;
64885;SDS011;51514;52.206;5.114;2024-01-16T06:11:46;7.85;;;3.13;;
64885;SDS011;51514;52.206;5.114;2024-01-16T06:14:13;10.13;;;3.03;;
64885;SDS011;51514;52.206;5.114;2024-01-16T06:16:38;5.43;;;2.65;;
64885;SDS011;51514;52.206;5.114;2024-01-16T06:19:03;5.53;;;2.38;;
64885;SDS011;51514;52.206;5.114;2024-01-16T06:21:29;5.88;;;2.45;;
64885;SDS011;51514;52.206;5.114;2024-01-16T06:23:55;4.88;;;2.65;;
64885;SDS011;51514;52.206;5.114;2024-01-16T06:26:20;9.63;;;3.50;;
64885;SDS011;51514;52.206;5.114;2024-01-16T06:28:46;8.32;;;3.30;;
64885;SDS011;51514;52.206;5.114;2024-01-16T06:31:11;7.03;;;2.72;;
64885;SDS011;51514;52.206;5.114;2024-01-16T06:33:37;4.18;;;2.38;;
64885;SDS011;51514;52.206;5.114;2024-01-16T06:36:03;9.45;;;2.97;;
64885;SDS011;51514;52.206;5.114;2024-01-16T06:38:31;6.85;;;2.85;;
64885;SDS011;51514;52.206;5.114;2024-01-16T06:40:57;11.93;;;2.60;;
64885;SDS011;51514;52.206;5.114;2024-01-16T06:43:23;9.18;;;2.67;;
64885;SDS011;51514;52.206;5.114;2024-01-16T06:45:48;5.65;;;2.55;;
64885;SDS011;51514;52.206;5.114;2024-01-16T06:48:13;5.70;;;2.25;;
64885;SDS011;51514;52.206;5.114;2024-01-16T06:50:39;9.27;;;2.50;;
64885;SDS011;51514;52.206;5.114;2024-01-16T06:53:04;7.35;;;3.00;;
64885;SDS011;51514;52.206;5.114;2024-01-16T06:55:30;9.02;;;2.72;;
64885;SDS011;51514;52.206;5.114;2024-01-16T06:57:55;11.35;;;2.85;;
64885;SDS011;51514;52.206;5.114;2024-01-16T07:00:20;5.05;;;2.80;;
64885;SDS011;51514;52.206;5.114;2024-01-16T07:02:47;11.52;;;3.42;;
64885;SDS011;51514;52.206;5.114;2024-01-16T07:05:13;9.85;;;3.92;;
64885;SDS011;51514;52.206;5.114;2024-01-16T07:07:38;4.93;;;2.65;;
64885;SDS011;51514;52.206;5.114;2024-01-16T07:10:04;6.93;;;3.10;;
64885;SDS011;51514;52.206;5.114;2024-01-16T07:12:33;13.27;;;4.07;;
64885;SDS011;51514;52.206;5.114;2024-01-16T07:14:58;12.27;;;4.20;;
64885;SDS011;51514;52.206;5.114;2024-01-16T07:17:24;10.50;;;3.50;;
64885;SDS011;51514;52.206;5.114;2024-01-16T07:19:49;6.40;;;3.08;;
64885;SDS011;51514;52.206;5.114;2024-01-16T07:22:15;7.65;;;3.47;;
64885;SDS011;51514;52.206;5.114;2024-01-16T07:24:40;13.73;;;3.95;;
64885;SDS011;51514;52.206;5.114;2024-01-16T07:27:06;13.80;;;3.67;;
64885;SDS011;51514;52.206;5.114;2024-01-16T07:29:31;8.48;;;3.97;;
64885;SDS011;51514;52.206;5.114;2024-01-16T07:31:56;14.15;;;5.03;;
64885;SDS011;51514;52.206;5.114;2024-01-16T07:34:22;10.20;;;4.43;;
64885;SDS011;51514;52.206;5.114;2024-01-16T07:36:47;11.45;;;4.63;;
64885;SDS011;51514;52.206;5.114;2024-01-16T07:39:13;8.50;;;4.88;;
64885;SDS011;51514;52.206;5.114;2024-01-16T07:41:39;9.65;;;4.65;;
64885;SDS011;51514;52.206;5.114;2024-01-16T07:44:05;10.55;;;4.50;;
64885;SDS011;51514;52.206;5.114;2024-01-16T07:46:30;9.32;;;5.35;;
64885;SDS011;51514;52.206;5.114;2024-01-16T07:48:55;13.27;;;5.70;;
64885;SDS011;51514;52.206;5.114;2024-01-16T07:51:20;11.77;;;5.15;;
64885;SDS011;51514;52.206;5.114;2024-01-16T07:53:46;19.70;;;5.80;;
64885;SDS011;51514;52.206;5.114;2024-01-16T07:56:11;13.75;;;6.47;;
64885;SDS011;51514;52.206;5.114;2024-01-16T07:58:37;13.00;;;6.05;;
64885;SDS011;51514;52.206;5.114;2024-01-16T08:01:02;11.57;;;6.70;;
64885;SDS011;51514;52.206;5.114;2024-01-16T08:03:28;17.77;;;6.75;;
64885;SDS011;51514;52.206;5.114;2024-01-16T08:05:53;11.52;;;7.53;;
64885;SDS011;51514;52.206;5.114;2024-01-16T08:08:19;16.88;;;6.82;;
64885;SDS011;51514;52.206;5.114;2024-01-16T08:10:44;12.45;;;6.53;;
64885;SDS011;51514;52.206;5.114;2024-01-16T08:13:10;13.23;;;6.68;;
64885;SDS011;51514;52.206;5.114;2024-01-16T08:15:35;16.88;;;7.93;;
64885;SDS011;51514;52.206;5.114;2024-01-16T08:18:02;17.20;;;7.60;;
64885;SDS011;51514;52.206;5.114;2024-01-16T08:20:27;12.95;;;7.07;;
64885;SDS011;51514;52.206;5.114;2024-01-16T08:22:53;11.73;;;6.80;;
64885;SDS011;51514;52.206;5.114;2024-01-16T08:25:18;10.93;;;6.88;;
64885;SDS011;51514;52.206;5.114;2024-01-16T08:27:43;12.65;;;6.88;;
64885;SDS011;51514;52.206;5.114;2024-01-16T08:30:09;16.10;;;6.85;;
64885;SDS011;51514;52.206;5.114;2024-01-16T08:32:36;14.73;;;7.00;;
64885;SDS011;51514;52.206;5.114;2024-01-16T08:35:01;18.08;;;6.75;;
64885;SDS011;51514;52.206;5.114;2024-01-16T08:37:27;12.40;;;6.95;;
64885;SDS011;51514;52.206;5.114;2024-01-16T08:39:53;13.85;;;6.38;;
64885;SDS011;51514;52.206;5.114;2024-01-16T08:42:18;11.35;;;5.97;;
64885;SDS011;51514;52.206;5.114;2024-01-16T08:44:44;11.93;;;6.38;;
64885;SDS011;51514;52.206;5.114;2024-01-16T08:47:09;13.98;;;5.45;;
64885;SDS011;51514;52.206;5.114;2024-01-16T08:49:34;12.95;;;6.07;;
64885;SDS011;51514;52.206;5.114;2024-01-16T08:52:00;10.63;;;5.57;;
64885;SDS011;51514;52.206;5.114;2024-01-16T08:54:27;14.98;;;5.50;;
64885;SDS011;51514;52.206;5.114;2024-01-16T08:56:53;12.73;;;5.25;;
64885;SDS011;51514;52.206;5.114;2024-01-16T08:59:18;15.35;;;6.13;;
64885;SDS011;51514;52.206;5.114;2024-01-16T09:01:43;19.08;;;5.45;;
64885;SDS011;51514;52.206;5.114;2024-01-16T09:04:09;12.27;;;6.20;;
64885;SDS011;51514;52.206;5.114;2024-01-16T09:06:35;9.80;;;4.60;;
64885;SDS011;51514;52.206;5.114;2024-01-16T09:09:00;12.63;;;4.70;;
64885;SDS011;51514;52.206;5.114;2024-01-16T09:11:25;11.32;;;4.85;;
64885;SDS011;51514;52.206;5.114;2024-01-16T09:13:51;10.85;;;4.22;;
64885;SDS011;51514;52.206;5.114;2024-01-16T09:16:16;7.68;;;4.55;;
64885;SDS011;51514;52.206;5.114;2024-01-16T09:18:42;14.02;;;5.50;;
64885;SDS011;51514;52.206;5.114;2024-01-16T09:21:07;12.30;;;4.20;;
64885;SDS011;51514;52.206;5.114;2024-01-16T09:23:32;9.88;;;4.43;;
64885;SDS011;51514;52.206;5.114;2024-01-16T09:25:58;11.65;;;3.70;;
64885;SDS011;51514;52.206;5.114;2024-01-16T09:28:23;10.75;;;4.82;;
64885;SDS011;51514;52.206;5.114;2024-01-16T09:30:49;15.00;;;4.70;;
64885;SDS011;51514;52.206;5.114;2024-01-16T09:33:15;9.23;;;3.58;;
64885;SDS011;51514;52.206;5.114;2024-01-16T09:35:41;12.95;;;4.68;;
64885;SDS011;51514;52.206;5.114;2024-01-16T09:38:07;10.35;;;3.83;;
64885;SDS011;51514;52.206;5.114;2024-01-16T09:40:33;12.85;;;4.88;;
64885;SDS011;51514;52.206;5.114;2024-01-16T09:43:00;9.63;;;3.70;;
64885;SDS011;51514;52.206;5.114;2024-01-16T09:45:25;7.47;;;3.70;;
64885;SDS011;51514;52.206;5.114;2024-01-16T09:47:54;10.30;;;4.28;;
64885;SDS011;51514;52.206;5.114;2024-01-16T09:50:20;9.75;;;3.65;;
64885;SDS011;51514;52.206;5.114;2024-01-16T09:52:46;12.27;;;4.35;;
64885;SDS011;51514;52.206;5.114;2024-01-16T09:55:14;13.65;;;4.55;;
64885;SDS011;51514;52.206;5.114;2024-01-16T09:57:40;14.85;;;4.25;;
64885;SDS011;51514;52.206;5.114;2024-01-16T10:00:08;7.90;;;3.55;;
64885;SDS011;51514;52.206;5.114;2024-01-16T10:02:41;14.23;;;3.75;;
64885;SDS011;51514;52.206;5.114;2024-01-16T10:05:10;14.93;;;3.88;;
64885;SDS011;51514;52.206;5.114;2024-01-16T10:07:37;10.05;;;3.88;;
64885;SDS011;51514;52.206;5.114;2024-01-16T10:10:03;8.52;;;3.30;;
64885;SDS011;51514;52.206;5.114;2024-01-16T10:12:30;11.63;;;3.65;;
64885;SDS011;51514;52.206;5.114;2024-01-16T10:14:55;7.75;;;3.55;;
64885;SDS011;51514;52.206;5.114;2024-01-16T10:17:21;9.40;;;3.53;;
64885;SDS011;51514;52.206;5.114;2024-01-16T10:19:52;8.98;;;3.28;;
64885;SDS011;51514;52.206;5.114;2024-01-16T10:22:23;7.35;;;3.08;;
64885;SDS011;51514;52.206;5.114;2024-01-16T10:27:31;11.18;;;3.60;;
64885;SDS011;51514;52.206;5.114;2024-01-16T10:29:57;9.73;;;3.25;;
64885;SDS011;51514;52.206;5.114;2024-01-16T10:33:00;8.20;;;3.42;;
64885;SDS011;51514;52.206;5.114;2024-01-16T10:35:15;9.88;;;3.03;;
64885;SDS011;51514;52.206;5.114;2024-01-16T10:40:07;23.98;;;3.97;;
64885;SDS011;51514;52.206;5.114;2024-01-16T10:42:33;8.57;;;2.72;;
64885;SDS011;51514;52.206;5.114;2024-01-16T10:44:58;8.25;;;3.65;;
64885;SDS011;51514;52.206;5.114;2024-01-16T10:47:23;7.60;;;3.60;;
64885;SDS011;51514;52.206;5.114;2024-01-16T10:49:49;9.32;;;3.28;;
64885;SDS011;51514;52.206;5.114;2024-01-16T10:52:14;9.43;;;3.47;;
64885;SDS011;51514;52.206;5.114;2024-01-16T10:54:44;8.32;;;3.97;;
64885;SDS011;51514;52.206;5.114;2024-01-16T10:57:14;12.98;;;3.83;;
64885;SDS011;51514;52.206;5.114;2024-01-16T10:59:42;7.45;;;3.47;;
64885;SDS011;51514;52.206;5.114;2024-01-16T11:02:16;8.93;;;3.67;;
64885;SDS011;51514;52.206;5.114;2024-01-16T11:04:45;8.68;;;3.45;;
64885;SDS011;51514;52.206;5.114;2024-01-16T11:07:13;5.60;;;2.90;;
64885;SDS011;51514;52.206;5.114;2024-01-16T11:09:39;9.50;;;3.05;;
64885;SDS011;51514;52.206;5.114;2024-01-16T11:12:06;7.40;;;3.17;;
64885;SDS011;51514;52.206;5.114;2024-01-16T11:14:33;7.07;;;3.30;;
64885;SDS011;51514;52.206;5.114;2024-01-16T11:17:01;9.98;;;3.10;;
64885;SDS011;51514;52.206;5.114;2024-01-16T11:19:28;9.18;;;3.83;;
64885;SDS011;51514;52.206;5.114;2024-01-16T11:21:56;8.73;;;3.22;;
64885;SDS011;51514;52.206;5.114;2024-01-16T11:24:23;6.75;;;3.22;;
64885;SDS011;51514;52.206;5.114;2024-01-16T11:26:49;10.05;;;3.50;;
64885;SDS011;51514;52.206;5.114;2024-01-16T11:31:52;8.68;;;3.47;;
64885;SDS011;51514;52.206;5.114;2024-01-16T11:34:52;8.10;;;3.30;;
64885;SDS011;51514;52.206;5.114;2024-01-16T11:37:11;9.25;;;3.50;;
64885;SDS011;51514;52.206;5.114;2024-01-16T11:39:38;9.45;;;3.28;;
64885;SDS011;51514;52.206;5.114;2024-01-16T11:42:03;6.97;;;3.60;;
64885;SDS011;51514;52.206;5.114;2024-01-16T11:44:42;8.75;;;3.53;;
64885;SDS011;51514;52.206;5.114;2024-01-16T11:47:08;8.98;;;4.15;;
64885;SDS011;51514;52.206;5.114;2024-01-16T11:49:39;9.27;;;3.65;;
64885;SDS011;51514;52.206;5.114;2024-01-16T11:52:05;6.65;;;3.55;;
64885;SDS011;51514;52.206;5.114;2024-01-16T11:54:32;8.95;;;3.72;;
64885;SDS011;51514;52.206;5.114;2024-01-16T11:57:07;7.30;;;3.80;;
64885;SDS011;51514;52.206;5.114;2024-01-16T12:00:01;7.45;;;3.47;;
64885;SDS011;51514;52.206;5.114;2024-01-16T12:05:19;7.65;;;3.78;;
64885;SDS011;51514;52.206;5.114;2024-01-16T12:07:49;7.75;;;3.25;;
64885;SDS011;51514;52.206;5.114;2024-01-16T12:10:16;9.18;;;3.72;;
64885;SDS011;51514;52.206;5.114;2024-01-16T12:12:43;9.57;;;3.50;;
64885;SDS011;51514;52.206;5.114;2024-01-16T12:15:15;7.57;;;3.63;;
64885;SDS011;51514;52.206;5.114;2024-01-16T12:17:54;7.35;;;3.97;;
64885;SDS011;51514;52.206;5.114;2024-01-16T12:20:29;8.43;;;4.05;;
64885;SDS011;51514;52.206;5.114;2024-01-16T12:22:56;7.70;;;4.88;;
64885;SDS011;51514;52.206;5.114;2024-01-16T12:25:30;7.68;;;3.13;;
64885;SDS011;51514;52.206;5.114;2024-01-16T12:28:00;9.10;;;3.80;;
64885;SDS011;51514;52.206;5.114;2024-01-16T12:30:28;7.28;;;2.83;;
64885;SDS011;51514;52.206;5.114;2024-01-16T12:33:07;6.95;;;3.20;;
64885;SDS011;51514;52.206;5.114;2024-01-16T12:35:36;7.07;;;3.22;;
64885;SDS011;51514;52.206;5.114;2024-01-16T12:40:34;5.68;;;2.90;;
64885;SDS011;51514;52.206;5.114;2024-01-16T12:43:20;6.30;;;3.42;;
64885;SDS011;51514;52.206;5.114;2024-01-16T12:45:46;7.53;;;3.65;;
64885;SDS011;51514;52.206;5.114;2024-01-16T12:48:22;8.85;;;3.20;;
64885;SDS011;51514;52.206;5.114;2024-01-16T12:50:49;8.32;;;3.78;;
64885;SDS011;51514;52.206;5.114;2024-01-16T12:53:15;7.38;;;3.20;;
64885;SDS011;51514;52.206;5.114;2024-01-16T12:55:41;5.13;;;2.35;;
64885;SDS011;51514;52.206;5.114;2024-01-16T13:00:46;8.95;;;3.00;;
64885;SDS011;51514;52.206;5.114;2024-01-16T13:03:20;13.25;;;2.85;;
64885;SDS011;51514;52.206;5.114;2024-01-16T13:05:56;6.15;;;2.28;;
64885;SDS011;51514;52.206;5.114;2024-01-16T13:08:22;14.85;;;2.30;;
64885;SDS011;51514;52.206;5.114;2024-01-16T13:13:37;10.45;;;2.33;;
64885;SDS011;51514;52.206;5.114;2024-01-16T13:16:04;6.93;;;2.25;;
64885;SDS011;51514;52.206;5.114;2024-01-16T13:18:33;6.28;;;2.30;;
64885;SDS011;51514;52.206;5.114;2024-01-16T13:20:59;3.05;;;2.05;;
64885;SDS011;51514;52.206;5.114;2024-01-16T13:23:26;6.63;;;2.25;;
64885;SDS011;51514;52.206;5.114;2024-01-16T13:25:53;4.97;;;2.03;;
64885;SDS011;51514;52.206;5.114;2024-01-16T13:28:29;7.43;;;2.00;;
64885;SDS011;51514;52.206;5.114;2024-01-16T13:30:55;3.25;;;1.92;;
64885;SDS011;51514;52.206;5.114;2024-01-16T13:33:22;5.30;;;1.70;;
64885;SDS011;51514;52.206;5.114;2024-01-16T13:35:51;4.88;;;2.30;;
64885;SDS011;51514;52.206;5.114;2024-01-16T13:38:19;2.75;;;2.10;;
64885;SDS011;51514;52.206;5.114;2024-01-16T13:40:45;7.47;;;2.10;;
64885;SDS011;51514;52.206;5.114;2024-01-16T13:43:11;7.18;;;2.28;;
64885;SDS011;51514;52.206;5.114;2024-01-16T13:45:37;6.70;;;2.20;;
64885;SDS011;51514;52.206;5.114;2024-01-16T13:48:03;6.93;;;2.58;;
64885;SDS011;51514;52.206;5.114;2024-01-16T13:50:30;5.78;;;1.60;;
64885;SDS011;51514;52.206;5.114;2024-01-16T13:52:57;8.00;;;2.00;;
64885;SDS011;51514;52.206;5.114;2024-01-16T13:55:22;6.25;;;1.88;;
64885;SDS011;51514;52.206;5.114;2024-01-16T13:57:48;8.57;;;2.60;;
64885;SDS011;51514;52.206;5.114;2024-01-16T14:00:14;3.97;;;2.20;;
64885;SDS011;51514;52.206;5.114;2024-01-16T14:05:10;2.85;;;1.48;;
64885;SDS011;51514;52.206;5.114;2024-01-16T14:07:40;6.55;;;2.17;;
64885;SDS011;51514;52.206;5.114;2024-01-16T14:10:07;5.53;;;2.37;;
64885;SDS011;51514;52.206;5.114;2024-01-16T14:12:35;6.77;;;2.20;;
64885;SDS011;51514;52.206;5.114;2024-01-16T14:15:00;9.77;;;2.17;;
64885;SDS011;51514;52.206;5.114;2024-01-16T14:17:29;3.80;;;1.83;;
64885;SDS011;51514;52.206;5.114;2024-01-16T14:19:54;3.78;;;1.77;;
64885;SDS011;51514;52.206;5.114;2024-01-16T14:22:20;7.82;;;2.05;;
64885;SDS011;51514;52.206;5.114;2024-01-16T14:24:45;3.55;;;1.75;;
64885;SDS011;51514;52.206;5.114;2024-01-16T14:27:12;7.68;;;1.85;;
64885;SDS011;51514;52.206;5.114;2024-01-16T14:29:38;6.05;;;1.90;;
64885;SDS011;51514;52.206;5.114;2024-01-16T14:32:04;4.13;;;1.77;;
64885;SDS011;51514;52.206;5.114;2024-01-16T14:34:30;5.00;;;2.10;;
64885;SDS011;51514;52.206;5.114;2024-01-16T14:36:56;3.05;;;2.00;;
64885;SDS011;51514;52.206;5.114;2024-01-16T14:39:21;3.92;;;1.95;;
64885;SDS011;51514;52.206;5.114;2024-01-16T14:41:49;4.18;;;2.20;;
64885;SDS011;51514;52.206;5.114;2024-01-16T14:44:15;6.18;;;2.47;;
64885;SDS011;51514;52.206;5.114;2024-01-16T14:46:41;3.88;;;1.85;;
64885;SDS011;51514;52.206;5.114;2024-01-16T14:49:09;4.13;;;2.00;;
64885;SDS011;51514;52.206;5.114;2024-01-16T14:51:35;7.70;;;2.53;;
64885;SDS011;51514;52.206;5.114;2024-01-16T14:54:00;4.88;;;2.38;;
64885;SDS011;51514;52.206;5.114;2024-01-16T14:56:27;3.97;;;1.70;;
64885;SDS011;51514;52.206;5.114;2024-01-16T14:58:53;3.97;;;1.70;;
64885;SDS011;51514;52.206;5.114;2024-01-16T15:01:18;5.50;;;2.00;;